Time;durP1;ratioP1;P1;durP2;ratioP2;P2;SDS_P1;SDS_P2;PMS_P1;PMS_P2;Temp;Humidity;BMP_temperature;BMP_pressure;BME280_temperature;BME280_humidity;BME280_pressure;Samples;Min_cycle;Max_cycle;Signal;HPM_P1;HPM_P2
2023/02/24 00:00:50;;;;;;;8.02;1.95;;;5.00;99.90;;;;;;4845007;29;20042;-93
2023/02/24 00:03:19;;;;;;;7.28;1.70;;;4.90;99.90;;;;;;4844481;29;20068;-95
2023/02/24 00:05:51;;;;;;;7.65;1.63;;;4.90;99.90;;;;;;4844328;29;20085;-93
2023/02/24 00:08:19;;;;;;;10.48;1.73;;;4.90;99.90;;;;;;4845413;29;20132;-92
2023/02/24 00:10:57;;;;;;;5.47;1.70;;;4.90;99.90;;;;;;4844252;29;20054;-93
2023/02/24 00:13:28;;;;;;;6.50;1.70;;;4.90;99.90;;;;;;4845087;29;20483;-93
2023/02/24 00:16:03;;;;;;;7.88;1.70;;;4.90;99.90;;;;;;4843775;29;20081;-92
2023/02/24 00:18:38;;;;;;;9.30;1.75;;;4.90;99.90;;;;;;4843808;29;20117;-93
2023/02/24 00:21:15;;;;;;;4.55;1.52;;;4.90;99.90;;;;;;4844944;29;20042;-93
2023/02/24 00:23:45;;;;;;;6.32;1.52;;;4.90;99.90;;;;;;4844455;29;20069;-92
2023/02/24 00:26:13;;;;;;;7.43;1.80;;;4.80;99.90;;;;;;4828464;29;20058;-93
2023/02/24 00:28:43;;;;;;;5.07;1.70;;;4.80;99.90;;;;;;4828159;29;20046;-92
2023/02/24 00:31:18;;;;;;;8.18;1.50;;;4.80;99.90;;;;;;4844015;29;20050;-92
2023/02/24 00:33:46;;;;;;;13.02;1.67;;;4.80;99.90;;;;;;4828552;29;20050;-93
2023/02/24 00:36:25;;;;;;;9.60;1.80;;;4.80;99.90;;;;;;4845027;29;20050;-93
2023/02/24 00:39:08;;;;;;;9.48;1.90;;;4.80;99.90;;;;;;4828101;29;20049;-93
2023/02/24 00:41:36;;;;;;;8.23;1.52;;;4.80;99.90;;;;;;4829573;29;20508;-93
2023/02/24 00:44:10;;;;;;;7.20;1.83;;;4.80;99.90;;;;;;4844740;29;20042;-92
2023/02/24 00:46:44;;;;;;;6.20;1.50;;;4.80;99.90;;;;;;4828368;29;20607;-90
2023/02/24 00:49:16;;;;;;;10.85;1.63;;;4.80;99.90;;;;;;4850727;29;20037;-93
2023/02/24 00:51:47;;;;;;;7.50;1.67;;;4.80;99.90;;;;;;4832137;29;20482;-93
2023/02/24 00:54:19;;;;;;;6.18;1.95;;;4.80;99.90;;;;;;4828408;29;20482;-93
2023/02/24 00:56:48;;;;;;;6.15;1.48;;;4.80;99.90;;;;;;4844012;29;20045;-92
2023/02/24 00:59:19;;;;;;;8.50;1.48;;;4.80;99.90;;;;;;4825117;29;20047;-91
2023/02/24 01:01:45;;;;;;;8.40;1.95;;;4.80;99.90;;;;;;4835463;29;20080;-92
2023/02/24 01:04:28;;;;;;;6.32;1.35;;;4.70;99.90;;;;;;4828408;29;20073;-92
2023/02/24 01:07:00;;;;;;;6.60;1.58;;;4.80;99.90;;;;;;4844532;29;20049;-92
2023/02/24 01:09:33;;;;;;;6.82;1.63;;;4.70;99.90;;;;;;4828006;29;20414;-92
2023/02/24 01:14:54;;;;;;;9.55;1.88;;;4.70;99.90;;;;;;4828123;29;20516;-92
2023/02/24 01:17:20;;;;;;;8.43;1.55;;;4.60;99.90;;;;;;4827567;29;20137;-93
2023/02/24 01:19:48;;;;;;;5.45;1.73;;;4.60;99.90;;;;;;4833102;29;20502;-93
2023/02/24 01:22:15;;;;;;;4.90;1.50;;;4.60;99.90;;;;;;4846051;29;20048;-91
2023/02/24 01:24:43;;;;;;;6.32;1.42;;;4.60;99.90;;;;;;4831128;29;20506;-94
2023/02/24 01:27:16;;;;;;;6.40;1.35;;;4.50;99.90;;;;;;4828129;29;20405;-93
2023/02/24 01:29:42;;;;;;;8.30;1.73;;;4.50;99.90;;;;;;4844152;29;20054;-92
2023/02/24 01:32:17;;;;;;;11.05;1.85;;;4.50;99.90;;;;;;4828130;29;20061;-91
2023/02/24 01:34:44;;;;;;;8.02;1.88;;;4.50;99.90;;;;;;4827150;29;20061;-92
2023/02/24 01:37:15;;;;;;;12.05;1.80;;;4.50;99.90;;;;;;4828021;29;20117;-93
2023/02/24 01:39:40;;;;;;;8.68;1.63;;;4.40;99.90;;;;;;4827719;29;20490;-92
2023/02/24 01:42:06;;;;;;;7.05;1.60;;;4.40;99.90;;;;;;4844143;29;20054;-93
2023/02/24 01:44:32;;;;;;;6.03;1.70;;;4.40;99.90;;;;;;4833540;29;20041;-93
2023/02/24 01:47:02;;;;;;;8.98;1.40;;;4.30;99.90;;;;;;4862009;29;20053;-91
2023/02/24 01:49:54;;;;;;;6.18;1.50;;;4.30;99.90;;;;;;4835904;29;20502;-92
2023/02/24 01:52:29;;;;;;;11.80;1.67;;;4.30;99.90;;;;;;4841681;29;20082;-92
2023/02/24 01:55:18;;;;;;;7.18;1.27;;;4.30;99.90;;;;;;4843760;29;20046;-93
2023/02/24 01:57:46;;;;;;;4.55;1.55;;;4.30;99.90;;;;;;4827792;29;20046;-92
2023/02/24 02:00:36;;;;;;;5.97;1.63;;;4.20;99.90;;;;;;4827140;29;20038;-94
2023/02/24 02:03:17;;;;;;;8.55;1.75;;;4.20;99.90;;;;;;4827641;29;20071;-93
2023/02/24 02:05:47;;;;;;;6.85;1.40;;;4.20;99.90;;;;;;4843663;29;20046;-92
2023/02/24 02:08:14;;;;;;;6.13;1.50;;;4.20;99.90;;;;;;4827073;29;20066;-93
2023/02/24 02:10:42;;;;;;;6.43;1.50;;;4.20;99.90;;;;;;4847368;29;20061;-94
2023/02/24 02:13:11;;;;;;;7.85;1.60;;;4.20;99.90;;;;;;4854991;29;20066;-93
2023/02/24 02:15:46;;;;;;;8.32;1.65;;;4.10;99.90;;;;;;4847467;29;20057;-92
2023/02/24 02:18:26;;;;;;;9.73;1.35;;;4.10;99.90;;;;;;4830537;29;20398;-91
2023/02/24 02:21:01;;;;;;;7.22;1.60;;;4.10;99.90;;;;;;4830599;29;20493;-91
2023/02/24 02:23:39;;;;;;;5.18;1.27;;;4.10;99.90;;;;;;4835822;29;20562;-92
2023/02/24 02:26:17;;;;;;;4.90;1.50;;;4.10;99.90;;;;;;4865588;29;20159;-93
2023/02/24 02:29:08;;;;;;;7.60;1.65;;;4.10;99.90;;;;;;4849209;29;20057;-92
2023/02/24 02:32:09;;;;;;;4.70;1.30;;;4.10;99.90;;;;;;4848824;29;20386;-93
2023/02/24 02:34:53;;;;;;;7.60;1.40;;;4.10;99.90;;;;;;4849052;29;20087;-92
2023/02/24 02:37:43;;;;;;;6.07;1.40;;;4.00;99.90;;;;;;4872270;23;20049;-93
2023/02/24 02:40:30;;;;;;;7.50;1.50;;;4.00;99.90;;;;;;4838264;29;20057;-94
2023/02/24 02:43:24;;;;;;;8.23;1.30;;;4.00;99.90;;;;;;4863320;29;20394;-94
2023/02/24 02:46:02;;;;;;;8.00;1.40;;;4.00;99.90;;;;;;4849067;29;20057;-93
2023/02/24 02:48:42;;;;;;;6.72;1.35;;;4.00;99.90;;;;;;4848713;29;20049;-93
2023/02/24 02:51:15;;;;;;;11.05;1.60;;;3.90;99.90;;;;;;4864983;29;20117;-94
2023/02/24 02:54:11;;;;;;;5.85;1.10;;;3.90;99.90;;;;;;4848746;29;20049;-92
2023/02/24 02:56:45;;;;;;;7.25;1.27;;;3.90;99.90;;;;;;4864256;29;20084;-93
2023/02/24 02:59:13;;;;;;;7.18;1.23;;;3.90;99.90;;;;;;4865078;29;20049;-94
2023/02/24 03:01:42;;;;;;;5.90;0.98;;;3.90;99.90;;;;;;4831082;29;20107;-93
2023/02/24 03:04:12;;;;;;;8.93;1.45;;;3.90;99.90;;;;;;4830381;29;20506;-95
2023/02/24 03:06:46;;;;;;;6.90;1.48;;;3.80;99.90;;;;;;4853255;29;20041;-93
2023/02/24 03:09:25;;;;;;;5.72;1.30;;;3.80;99.90;;;;;;4848578;29;20077;-94
2023/02/24 03:11:58;;;;;;;5.70;1.30;;;3.80;99.90;;;;;;4847807;29;20056;-93
2023/02/24 03:14:28;;;;;;;9.05;1.90;;;3.80;99.90;;;;;;4829867;29;20050;-93
2023/02/24 03:16:57;;;;;;;9.50;1.63;;;3.80;99.90;;;;;;4830172;29;20054;-94
2023/02/24 03:19:32;;;;;;;5.47;0.90;;;3.80;99.90;;;;;;4826279;29;20058;-95
2023/02/24 03:22:11;;;;;;;9.32;1.40;;;3.80;99.90;;;;;;4845882;29;20045;-94
2023/02/24 03:24:41;;;;;;;10.32;1.30;;;3.90;99.90;;;;;;4833487;29;20057;-94
2023/02/24 03:27:23;;;;;;;8.90;1.30;;;3.80;99.90;;;;;;4830314;29;20110;-94
2023/02/24 03:29:57;;;;;;;7.85;1.10;;;3.80;99.90;;;;;;4847194;29;20056;-95
2023/02/24 03:32:42;;;;;;;8.43;1.25;;;3.80;99.90;;;;;;4829946;29;20101;-95
2023/02/24 03:35:16;;;;;;;7.68;1.17;;;3.80;99.90;;;;;;4848367;29;20046;-94
2023/02/24 03:37:43;;;;;;;7.35;1.15;;;3.80;99.90;;;;;;4847711;29;20064;-94
2023/02/24 03:40:15;;;;;;;7.28;1.30;;;3.90;99.90;;;;;;4864338;29;20383;-95
2023/02/24 03:42:51;;;;;;;9.65;1.45;;;3.90;99.90;;;;;;4848114;29;20049;-95
2023/02/24 03:45:18;;;;;;;6.57;1.20;;;3.90;99.90;;;;;;4861898;29;20049;-94
2023/02/24 03:47:45;;;;;;;7.95;1.25;;;3.90;99.90;;;;;;4828901;29;20049;-96
2023/02/24 03:50:13;;;;;;;8.30;1.20;;;3.90;99.90;;;;;;4829224;29;20053;-94
2023/02/24 03:52:46;;;;;;;8.90;1.58;;;3.90;99.90;;;;;;4829420;29;20103;-94
2023/02/24 03:55:59;;;;;;;10.17;1.27;;;3.90;99.90;;;;;;4828967;29;20069;-94
2023/02/24 03:58:45;;;;;;;11.20;1.40;;;3.90;99.90;;;;;;4818087;29;20150;-96
2023/02/24 04:01:20;;;;;;;10.55;1.58;;;3.90;99.90;;;;;;4836704;29;20053;-94
2023/02/24 04:04:12;;;;;;;7.13;1.10;;;3.80;99.90;;;;;;4864447;29;20504;-95
2023/02/24 04:06:56;;;;;;;5.78;1.10;;;3.90;99.90;;;;;;4853471;29;20057;-95
2023/02/24 04:09:22;;;;;;;5.95;1.20;;;3.90;99.90;;;;;;4847335;29;20045;-95
2023/02/24 04:12:14;;;;;;;7.43;1.30;;;3.80;99.90;;;;;;4859846;29;20070;-95
2023/02/24 04:14:52;;;;;;;6.63;1.30;;;3.90;99.90;;;;;;4829334;29;20050;-95
2023/02/24 04:17:43;;;;;;;7.95;1.27;;;3.80;99.90;;;;;;4829073;29;20082;-94
2023/02/24 04:20:12;;;;;;;7.32;1.52;;;3.90;99.90;;;;;;4845808;29;20065;-95
2023/02/24 04:22:40;;;;;;;5.85;0.98;;;3.90;99.90;;;;;;4828796;29;20046;-95
2023/02/24 04:25:12;;;;;;;9.32;1.50;;;3.80;99.90;;;;;;4845476;29;20042;-95
2023/02/24 04:27:42;;;;;;;6.37;1.20;;;3.90;99.90;;;;;;4845270;29;20082;-93
2023/02/24 04:30:10;;;;;;;4.45;0.90;;;3.80;99.90;;;;;;4828970;29;20037;-95
2023/02/24 04:32:37;;;;;;;7.88;1.20;;;3.90;99.90;;;;;;4844196;29;20502;-94
2023/02/24 04:35:05;;;;;;;10.48;1.45;;;3.90;99.90;;;;;;4845321;29;20081;-95
2023/02/24 04:37:34;;;;;;;10.15;1.63;;;3.80;99.90;;;;;;4857639;29;20101;-96
2023/02/24 04:40:00;;;;;;;9.52;1.27;;;3.80;99.90;;;;;;4848892;29;20058;-95
2023/02/24 04:42:27;;;;;;;8.20;1.10;;;3.80;99.90;;;;;;4828677;29;20054;-94
2023/02/24 04:44:53;;;;;;;8.18;1.30;;;3.80;99.90;;;;;;4828480;29;20085;-95
2023/02/24 04:47:19;;;;;;;10.73;1.33;;;3.80;99.90;;;;;;4828504;29;20052;-94
2023/02/24 04:49:44;;;;;;;9.73;1.42;;;3.80;99.90;;;;;;4834640;29;20042;-94
2023/02/24 04:52:10;;;;;;;4.30;0.90;;;3.90;99.90;;;;;;4847487;29;20081;-95
2023/02/24 04:54:36;;;;;;;9.30;1.27;;;3.80;99.90;;;;;;4838850;29;20034;-94
2023/02/24 04:57:05;;;;;;;10.27;1.50;;;3.90;99.90;;;;;;4828800;29;20046;-92
2023/02/24 04:59:31;;;;;;;7.00;1.25;;;3.90;99.90;;;;;;4844622;29;20050;-91
2023/02/24 05:02:03;;;;;;;8.57;1.02;;;3.90;99.90;;;;;;4827035;29;20042;-90
2023/02/24 05:04:37;;;;;;;5.97;1.02;;;3.90;99.90;;;;;;4826835;29;20038;-90
2023/02/24 05:07:03;;;;;;;6.57;1.30;;;3.90;99.90;;;;;;4843026;29;20050;-89
2023/02/24 05:09:29;;;;;;;6.65;1.10;;;3.90;99.90;;;;;;4842762;29;20499;-88
2023/02/24 05:15:00;;;;;;;;;;;3.90;99.90;;;;;;5083269;23;20058;-91
2023/02/24 05:17:39;;;;;;;5.32;1.10;;;3.90;99.90;;;;;;4879492;29;20384;-91
2023/02/24 05:23:28;;;;;;;8.13;1.23;;;3.90;99.90;;;;;;4863519;29;20041;-93
2023/02/24 05:25:57;;;;;;;10.98;1.20;;;3.90;99.90;;;;;;4880232;29;20049;-94
2023/02/24 05:28:32;;;;;;;11.88;1.48;;;3.90;99.90;;;;;;4869619;29;20557;-93
2023/02/24 05:31:07;;;;;;;6.85;1.25;;;4.00;99.90;;;;;;4879590;29;20045;-91
2023/02/24 05:33:34;;;;;;;7.78;1.38;;;4.00;99.90;;;;;;4894829;23;20048;-96
2023/02/24 05:43:17;;;;;;;9.30;1.38;;;4.00;99.90;;;;;;5323331;23;20032;31
2023/02/24 05:46:05;;;;;;;14.50;1.40;;;4.00;99.90;;;;;;5606576;23;20064;31
2023/02/24 05:48:35;;;;;;;12.10;1.20;;;4.00;99.90;;;;;;4969803;23;20286;-96
2023/02/24 05:56:21;;;;;;;9.48;1.45;;;4.10;99.90;;;;;;5051946;23;20049;-96
2023/02/24 05:58:48;;;;;;;8.60;1.25;;;4.10;99.90;;;;;;4877421;29;20187;-95
2023/02/24 06:01:18;;;;;;;9.95;1.58;;;4.10;99.90;;;;;;4879788;29;20049;-96
2023/02/24 06:03:47;;;;;;;8.43;1.40;;;4.10;99.90;;;;;;4881025;29;20041;-95
2023/02/24 06:06:16;;;;;;;12.25;1.45;;;4.10;99.90;;;;;;4879537;29;20132;-96
2023/02/24 06:08:51;;;;;;;8.95;1.45;;;4.20;99.90;;;;;;4881397;29;20077;-96
2023/02/24 06:19:00;;;;;;;10.15;1.60;;;4.20;99.90;;;;;;4871521;29;20060;-95
2023/02/24 06:22:10;;;;;;;10.52;1.45;;;4.20;99.90;;;;;;4879732;29;20101;-96
2023/02/24 06:27:23;;;;;;;12.88;1.83;;;4.30;99.90;;;;;;5387493;23;20053;-95
2023/02/24 06:29:51;;;;;;;12.23;1.67;;;4.30;99.90;;;;;;4895119;29;20051;-96
2023/02/24 06:32:19;;;;;;;10.35;1.52;;;4.30;99.90;;;;;;4894828;29;20082;-95
2023/02/24 06:35:01;;;;;;;9.43;1.60;;;4.30;99.90;;;;;;4880102;29;20064;-95
2023/02/24 06:37:28;;;;;;;16.05;2.10;;;4.30;99.90;;;;;;4894085;29;20409;-95
2023/02/24 06:39:54;;;;;;;11.88;1.83;;;4.40;99.90;;;;;;4896177;29;20049;-94
2023/02/24 06:42:26;;;;;;;10.93;1.83;;;4.40;99.90;;;;;;4876069;29;20086;-96
2023/02/24 06:44:54;;;;;;;11.75;2.47;;;4.50;99.90;;;;;;4895276;29;20032;-96
2023/02/24 06:47:21;;;;;;;16.77;2.40;;;4.40;99.90;;;;;;4894345;29;20148;-95
2023/02/24 06:49:48;;;;;;;12.63;2.10;;;4.40;99.90;;;;;;4892116;29;20053;-95
2023/02/24 06:52:29;;;;;;;10.32;1.83;;;4.50;99.90;;;;;;4875721;29;20066;-96
2023/02/24 06:55:05;;;;;;;12.88;2.60;;;4.40;99.90;;;;;;4892821;29;20124;-96
2023/02/24 06:57:33;;;;;;;13.05;2.45;;;4.50;99.90;;;;;;4883212;29;20057;-95
2023/02/24 07:00:01;;;;;;;13.23;2.50;;;4.50;99.90;;;;;;4886304;29;20397;-96
2023/02/24 07:02:38;;;;;;;13.55;2.72;;;4.50;99.90;;;;;;4902750;29;20056;-96
2023/02/24 07:08:21;;;;;;;20.92;3.25;;;4.50;99.90;;;;;;5021705;23;20414;-95
2023/02/24 07:11:10;;;;;;;15.55;3.33;;;4.50;99.90;;;;;;5017220;23;20061;-96
2023/02/24 07:13:39;;;;;;;12.45;3.10;;;4.50;99.90;;;;;;4879699;29;20064;-96
2023/02/24 07:16:10;;;;;;;13.15;3.10;;;4.50;99.90;;;;;;5584121;23;20563;-96
2023/02/24 08:22:50;;;;;;;20.10;3.58;;;4.70;99.90;;;;;;4878770;29;20486;-96
2023/02/24 08:25:34;;;;;;;20.45;3.45;;;4.80;99.90;;;;;;5666677;23;20103;-95
2023/02/24 08:28:14;;;;;;;14.75;3.30;;;4.80;99.90;;;;;;4870518;29;20057;-96
2023/02/24 08:36:24;;;;;;;;;;;;;;;;;;;;;
2023/02/24 08:39:35;;;;;;;18.00;3.80;;;4.80;99.90;;;;;;4876428;29;20116;-96
2023/02/24 08:42:17;;;;;;;17.23;3.78;;;4.80;99.90;;;;;;4873777;29;20105;-96
2023/02/24 08:44:44;;;;;;;15.82;3.60;;;4.80;99.90;;;;;;4868588;29;20053;-96
2023/02/24 08:47:29;;;;;;;17.02;3.40;;;4.90;99.90;;;;;;4864485;29;20105;-95
2023/02/24 08:49:58;;;;;;;17.92;3.67;;;4.90;99.90;;;;;;4867147;29;20070;-95
2023/02/24 08:53:07;;;;;;;16.17;4.20;;;4.90;99.90;;;;;;4848810;29;20569;-94
2023/02/24 08:55:41;;;;;;;17.55;3.47;;;4.90;99.90;;;;;;4865644;29;20490;-95
2023/02/24 08:58:30;;;;;;;18.13;4.13;;;4.90;99.90;;;;;;4868590;29;20045;-96
2023/02/24 09:00:58;;;;;;;12.88;3.10;;;5.00;99.90;;;;;;4868234;29;20053;-95
2023/02/24 09:03:44;;;;;;;15.02;3.30;;;5.00;99.90;;;;;;4869791;29;20041;-96
2023/02/24 09:06:42;;;;;;;16.27;3.45;;;5.00;99.90;;;;;;4868031;29;20160;-96
2023/02/24 09:09:45;;;;;;;17.67;3.42;;;5.00;99.90;;;;;;4871811;29;20045;-95
2023/02/24 09:12:30;;;;;;;14.48;3.85;;;5.00;99.90;;;;;;4869376;29;20429;-96
2023/02/24 09:15:06;;;;;;;11.77;3.00;;;5.10;99.90;;;;;;4873913;29;20058;-96
2023/02/24 09:27:34;;;;;;;16.23;3.17;;;5.20;99.90;;;;;;5063875;23;20034;-96
2023/02/24 09:30:54;;;;;;;11.93;3.35;;;5.20;99.90;;;;;;4959053;24;20056;-94
2023/02/24 10:37:36;;;;;;;17.15;3.45;;;6.00;99.90;;;;;;4843990;29;20051;-96
2023/02/24 10:42:59;;;;;;;20.00;3.70;;;6.20;99.90;;;;;;5719391;23;20057;-96
2023/02/24 10:45:43;;;;;;;23.70;4.38;;;6.40;99.90;;;;;;4863483;29;20395;-95
2023/02/24 10:49:00;;;;;;;25.70;4.57;;;6.50;99.90;;;;;;5058963;24;20060;-96
2023/02/24 10:51:59;;;;;;;28.45;3.95;;;6.60;99.90;;;;;;4867155;29;20053;-96
2023/02/24 10:54:43;;;;;;;30.70;4.55;;;6.80;99.90;;;;;;4853842;29;20046;-95
2023/02/24 11:00:50;;;;;;;29.52;4.45;;;6.90;99.90;;;;;;4860382;29;20041;-96
2023/02/24 11:03:46;;;;;;;37.50;4.68;;;7.00;99.90;;;;;;4857989;29;20046;-96
2023/02/24 11:17:26;;;;;;;33.33;4.65;;;7.10;99.90;;;;;;4854964;29;20050;-96
2023/02/24 11:20:17;;;;;;;30.02;4.47;;;7.20;99.90;;;;;;4853917;29;20049;-95
2023/02/24 11:22:50;;;;;;;38.85;5.03;;;7.10;99.90;;;;;;4852956;29;20054;-95
2023/02/24 11:25:38;;;;;;;33.92;5.15;;;7.10;99.90;;;;;;4864037;29;20443;-95
2023/02/24 11:28:04;;;;;;;37.78;5.55;;;7.20;99.90;;;;;;4864228;29;20113;-94
2023/02/24 11:30:50;;;;;;;32.13;4.68;;;7.20;99.90;;;;;;4865360;29;20136;-93
2023/02/24 11:33:22;;;;;;;38.50;5.63;;;7.20;99.90;;;;;;4863941;29;20112;-93
2023/02/24 11:36:08;;;;;;;32.58;4.60;;;7.20;99.90;;;;;;4852359;29;20041;-95
2023/02/24 11:38:37;;;;;;;41.28;5.57;;;7.20;99.90;;;;;;4853612;29;20132;-94
2023/02/24 11:41:39;;;;;;;28.63;4.40;;;7.20;99.90;;;;;;4856563;29;20057;-93
2023/02/24 11:44:53;;;;;;;35.90;5.47;;;7.30;99.90;;;;;;4848291;23;20064;-94
2023/02/24 11:47:44;;;;;;;36.40;4.90;;;7.40;99.90;;;;;;4835717;29;20062;-94
2023/02/24 11:50:39;;;;;;;23.05;3.63;;;7.40;99.90;;;;;;4853041;29;20069;-96
2023/02/24 11:53:26;;;;;;;27.17;4.25;;;7.40;99.90;;;;;;4862046;29;20077;-95
2023/02/24 11:56:42;;;;;;;29.45;4.85;;;7.40;99.90;;;;;;4860950;29;20061;-94
2023/02/24 11:59:44;;;;;;;32.42;4.55;;;7.40;99.90;;;;;;4817861;29;20057;-94
2023/02/24 12:02:42;;;;;;;35.17;4.47;;;7.40;99.90;;;;;;4810714;29;20055;-93
2023/02/24 12:05:47;;;;;;;28.38;4.60;;;7.40;99.90;;;;;;4806635;29;20043;-96
2023/02/24 12:08:47;;;;;;;32.67;5.43;;;7.50;99.90;;;;;;4819549;29;20065;-94
2023/02/24 12:12:23;;;;;;;26.92;4.85;;;7.50;99.90;;;;;;4810956;29;20061;-95
2023/02/24 12:14:59;;;;;;;;;;;7.50;99.90;;;;;;4795590;29;20059;-96
2023/02/24 12:17:56;;;;;;;30.42;4.13;;;7.60;99.90;;;;;;4796695;29;19925;-95
2023/02/24 12:20:26;;;;;;;28.35;4.63;;;7.60;99.90;;;;;;4820333;29;20141;-93
2023/02/24 12:25:40;;;;;;;29.52;4.20;;;7.70;99.90;;;;;;5194129;23;20049;-94
2023/02/24 12:28:20;;;;;;;23.58;3.65;;;7.70;99.90;;;;;;4852404;29;20136;-94
2023/02/24 12:30:48;;;;;;;16.95;2.70;;;7.70;99.90;;;;;;4860297;29;20057;-91
2023/02/24 12:33:32;;;;;;;15.45;2.42;;;7.70;99.90;;;;;;4861503;29;20041;-93
2023/02/24 12:36:11;;;;;;;20.35;2.60;;;7.60;99.90;;;;;;4861143;29;20053;-91
2023/02/24 12:39:19;;;;;;;11.50;2.10;;;7.60;99.90;;;;;;4862294;29;20132;-93
2023/02/24 12:42:03;;;;;;;14.35;2.50;;;7.50;99.90;;;;;;4861079;29;20121;-92
2023/02/24 12:44:40;;;;;;;;;;;7.40;99.90;;;;;;4844553;29;20113;-93
2023/02/24 12:47:12;;;;;;;22.00;2.97;;;7.40;99.90;;;;;;4861897;29;20030;-92
2023/02/24 12:49:39;;;;;;;23.40;2.83;;;7.30;99.90;;;;;;4862375;29;20295;-92
2023/02/24 12:52:19;;;;;;;19.92;2.90;;;7.30;99.90;;;;;;4861394;29;20049;-92
2023/02/24 12:55:00;;;;;;;25.35;3.42;;;7.40;99.90;;;;;;4857688;29;20485;-91
2023/02/24 12:57:47;;;;;;;23.13;3.60;;;7.40;99.90;;;;;;4851961;29;20077;-91
2023/02/24 13:00:36;;;;;;;28.13;3.70;;;7.40;99.90;;;;;;4858944;29;20406;-92
2023/02/24 13:03:23;;;;;;;37.22;5.05;;;7.40;99.90;;;;;;4859512;29;20045;-92
2023/02/24 13:06:05;;;;;;;26.08;3.65;;;7.40;99.90;;;;;;4844182;29;20050;-93
2023/02/24 13:08:58;;;;;;;26.60;4.00;;;7.40;99.90;;;;;;4860812;29;20470;-93
2023/02/24 13:11:56;;;;;;;25.13;3.75;;;7.50;99.90;;;;;;4849016;29;20399;-92
2023/02/24 13:14:34;;;;;;;26.77;4.00;;;7.50;99.90;;;;;;4812023;29;20094;-93
2023/02/24 13:17:07;;;;;;;21.83;3.65;;;7.60;99.90;;;;;;4857818;29;20385;-93
2023/02/24 13:19:34;;;;;;;25.67;3.35;;;7.70;99.90;;;;;;4855613;29;20072;-96
2023/02/24 13:22:06;;;;;;;25.67;4.30;;;7.70;99.90;;;;;;4865037;29;20042;-96
2023/02/24 13:24:32;;;;;;;22.35;3.30;;;7.80;99.90;;;;;;4866158;29;20065;-95
2023/02/24 13:27:15;;;;;;;21.92;3.40;;;7.90;99.90;;;;;;4870377;29;20038;-96
2023/02/24 13:29:47;;;;;;;21.52;3.22;;;7.90;99.90;;;;;;4865678;29;20112;-96
2023/02/24 13:32:40;;;;;;;18.10;3.20;;;7.90;99.90;;;;;;4872643;29;20056;-94
2023/02/24 13:35:15;;;;;;;12.95;2.08;;;7.90;99.90;;;;;;4864734;29;20057;-94
2023/02/24 13:37:44;;;;;;;11.85;1.77;;;7.90;99.90;;;;;;4863207;29;20060;-96
2023/02/24 13:40:21;;;;;;;12.43;1.92;;;7.80;99.90;;;;;;4846874;29;20058;-96
2023/02/24 13:42:58;;;;;;;9.88;1.40;;;7.80;99.90;;;;;;4847582;29;20045;-96
2023/02/24 13:45:32;;;;;;;13.32;2.40;;;7.80;99.90;;;;;;4852963;29;20079;-96
2023/02/24 13:48:36;;;;;;;10.38;1.85;;;7.80;99.90;;;;;;4845701;29;20049;-94
2023/02/24 13:51:30;;;;;;;10.10;1.55;;;7.80;99.90;;;;;;4842618;29;20095;-93
2023/02/24 13:54:17;;;;;;;16.00;1.88;;;7.80;99.90;;;;;;4843941;29;20094;-92
2023/02/24 13:57:06;;;;;;;10.82;1.50;;;7.80;99.90;;;;;;4843670;29;20545;-94
2023/02/24 13:59:46;;;;;;;8.98;1.50;;;7.80;99.90;;;;;;4842639;29;20498;-92
2023/02/24 14:02:37;;;;;;;11.60;1.98;;;7.80;99.90;;;;;;4853584;29;20128;-94
2023/02/24 14:05:12;;;;;;;8.70;1.23;;;7.80;99.90;;;;;;4857303;29;20049;-93
2023/02/24 14:07:39;;;;;;;11.00;1.30;;;7.90;99.90;;;;;;4862568;29;20042;-95
2023/02/24 14:10:28;;;;;;;9.65;1.50;;;7.90;99.90;;;;;;4862318;29;20132;-95
2023/02/24 14:13:05;;;;;;;14.07;1.70;;;7.80;99.90;;;;;;4861321;29;20822;-95
2023/02/24 14:15:32;;;;;;;9.02;2.08;;;7.80;99.90;;;;;;4861198;29;20082;-93
2023/02/24 14:18:00;;;;;;;8.73;1.85;;;7.80;99.90;;;;;;4861341;29;20140;-93
2023/02/24 14:20:38;;;;;;;11.60;1.55;;;7.80;99.90;;;;;;4861387;29;20494;-94
2023/02/24 14:23:27;;;;;;;10.80;1.77;;;7.80;99.90;;;;;;4861647;29;20053;-93
2023/02/24 14:26:00;;;;;;;11.57;1.83;;;7.80;99.90;;;;;;4860407;29;20049;-93
2023/02/24 14:28:29;;;;;;;10.82;1.50;;;7.80;99.90;;;;;;4858190;29;20065;-94
2023/02/24 14:30:58;;;;;;;7.90;1.15;;;7.80;99.90;;;;;;4861465;29;20074;-93
2023/02/24 14:33:44;;;;;;;9.98;1.52;;;7.70;99.90;;;;;;4862014;29;20037;-94
2023/02/24 14:36:18;;;;;;;8.75;1.35;;;7.70;99.90;;;;;;4848813;29;20049;-91
2023/02/24 14:38:44;;;;;;;9.25;1.10;;;7.80;99.90;;;;;;4848126;29;20052;-90
2023/02/24 14:41:21;;;;;;;6.05;1.00;;;7.70;99.90;;;;;;4858664;29;20042;-91
2023/02/24 14:43:47;;;;;;;8.80;1.88;;;7.70;99.90;;;;;;4849299;29;20494;-90
2023/02/24 14:46:12;;;;;;;11.32;1.70;;;7.60;99.90;;;;;;4858501;29;20117;-91
2023/02/24 14:48:38;;;;;;;8.27;1.40;;;7.60;99.90;;;;;;4858443;29;20041;-90
2023/02/24 14:51:11;;;;;;;9.93;1.58;;;7.60;99.90;;;;;;4859220;29;20050;-90
2023/02/24 14:53:45;;;;;;;7.93;1.27;;;7.50;99.90;;;;;;4860332;29;20050;-90
2023/02/24 14:56:11;;;;;;;11.40;1.48;;;7.50;99.90;;;;;;4860097;29;20106;-89
2023/02/24 14:58:47;;;;;;;12.60;1.63;;;7.50;99.90;;;;;;4860074;29;20109;-88
2023/02/24 15:01:24;;;;;;;11.18;1.50;;;7.50;99.90;;;;;;4842179;29;20046;-90
2023/02/24 15:03:57;;;;;;;10.57;1.60;;;7.50;99.90;;;;;;4854991;29;20046;-90
2023/02/24 15:06:30;;;;;;;14.85;2.20;;;7.40;99.90;;;;;;4859416;29;20054;-89
2023/02/24 15:09:00;;;;;;;10.00;1.52;;;7.40;99.90;;;;;;4859401;29;20057;-90
2023/02/24 15:11:28;;;;;;;13.30;1.80;;;7.40;99.90;;;;;;4860100;29;20052;-90
2023/02/24 15:14:07;;;;;;;8.02;1.38;;;7.40;99.90;;;;;;4860073;29;20053;-90
2023/02/24 15:16:39;;;;;;;14.80;1.90;;;7.30;99.90;;;;;;4861565;29;20545;-93
2023/02/24 15:19:24;;;;;;;12.35;1.77;;;7.30;99.90;;;;;;4862360;29;20045;-89
2023/02/24 15:21:50;;;;;;;11.35;2.20;;;7.30;99.90;;;;;;4850333;29;20069;-90
2023/02/24 15:24:20;;;;;;;13.75;2.33;;;7.30;99.90;;;;;;4862133;29;20404;-90
2023/02/24 15:27:12;;;;;;;11.73;2.15;;;7.30;99.90;;;;;;4855520;29;20085;-91
2023/02/24 15:29:38;;;;;;;13.85;2.17;;;7.20;99.90;;;;;;4861950;29;20058;-89
2023/02/24 15:32:07;;;;;;;12.50;2.13;;;7.30;99.90;;;;;;4861730;29;20504;-90
2023/02/24 15:34:35;;;;;;;15.02;2.20;;;7.20;99.90;;;;;;4861336;29;20494;-90
2023/02/24 15:37:11;;;;;;;10.65;2.00;;;7.20;99.90;;;;;;4860709;29;20556;-90
2023/02/24 15:39:40;;;;;;;12.43;2.22;;;7.20;99.90;;;;;;4862402;29;20056;-90
2023/02/24 15:42:27;;;;;;;15.25;2.28;;;7.20;99.90;;;;;;4861201;29;20050;-90
2023/02/24 15:44:59;;;;;;;12.05;2.15;;;7.20;99.90;;;;;;4854350;29;20045;-89
2023/02/24 15:47:38;;;;;;;9.43;2.03;;;7.10;99.90;;;;;;4861389;29;20060;-90
2023/02/24 15:50:04;;;;;;;11.45;1.92;;;7.00;99.90;;;;;;4859537;29;20046;-89
2023/02/24 15:52:30;;;;;;;12.88;1.92;;;7.00;99.90;;;;;;4859128;29;20049;-90
2023/02/24 15:54:58;;;;;;;15.07;2.05;;;6.90;99.90;;;;;;4859783;29;20045;-88
2023/02/24 15:57:24;;;;;;;15.27;2.13;;;6.90;99.90;;;;;;4862512;29;20045;-89
2023/02/24 15:59:50;;;;;;;12.30;1.80;;;7.00;99.90;;;;;;4858259;29;20050;-89
2023/02/24 16:02:40;;;;;;;9.00;2.05;;;6.90;99.90;;;;;;4858769;29;20045;-90
2023/02/24 16:05:06;;;;;;;11.02;2.33;;;6.90;99.90;;;;;;4858352;29;20443;-90
2023/02/24 16:07:35;;;;;;;18.23;3.08;;;6.80;99.90;;;;;;4848433;29;20049;-89
2023/02/24 16:10:01;;;;;;;16.15;2.28;;;6.80;99.90;;;;;;4861971;29;20057;-91
2023/02/24 16:12:34;;;;;;;20.48;2.88;;;6.80;99.90;;;;;;4861769;29;20097;-90
2023/02/24 16:15:04;;;;;;;11.63;2.22;;;6.80;99.90;;;;;;4851275;29;20057;-91
2023/02/24 16:17:34;;;;;;;20.05;3.10;;;6.80;99.90;;;;;;4857174;29;20038;-90
2023/02/24 16:20:01;;;;;;;15.00;2.95;;;6.80;99.90;;;;;;4849033;29;20056;-90
2023/02/24 16:22:29;;;;;;;17.77;2.80;;;6.80;99.90;;;;;;4866432;29;20074;-91
2023/02/24 16:24:58;;;;;;;18.65;2.95;;;6.80;99.90;;;;;;4867616;29;20069;-91
2023/02/24 16:27:26;;;;;;;14.82;2.65;;;6.80;99.90;;;;;;4844632;29;20104;-92
2023/02/24 16:29:52;;;;;;;20.02;3.40;;;6.80;99.90;;;;;;4846718;29;20647;-90
2023/02/24 16:32:20;;;;;;;19.33;3.08;;;6.80;99.90;;;;;;4854869;29;20029;-93
2023/02/24 16:34:46;;;;;;;19.20;2.60;;;6.70;99.90;;;;;;4867446;29;20132;-95
2023/02/24 16:37:31;;;;;;;22.95;3.50;;;6.70;99.90;;;;;;4850317;29;20041;-96
2023/02/24 16:39:58;;;;;;;15.90;2.92;;;6.60;99.90;;;;;;4886903;29;20052;-95
2023/02/24 16:42:24;;;;;;;26.02;3.03;;;6.60;99.90;;;;;;4868592;29;20042;-94
2023/02/24 16:45:30;;;;;;;19.10;3.30;;;6.60;99.90;;;;;;4815250;29;20058;-92
2023/02/24 16:47:58;;;;;;;17.52;3.13;;;6.50;99.90;;;;;;4867955;29;20054;-95
2023/02/24 16:51:07;;;;;;;17.42;3.10;;;6.40;99.90;;;;;;4871743;29;20041;-93
2023/02/24 16:54:02;;;;;;;17.77;2.95;;;6.40;99.90;;;;;;4870743;29;20068;-95
2023/02/24 17:00:13;;;;;;;22.25;3.92;;;6.40;99.90;;;;;;5643679;23;20080;-96
2023/02/24 17:03:25;;;;;;;20.70;3.33;;;6.30;99.90;;;;;;4898289;29;20082;-96
2023/02/24 17:05:57;;;;;;;26.70;5.43;;;6.30;99.90;;;;;;4892115;29;20048;-95